createdAt,value
2018-02-15T00:01:26.218Z,20.2
2018-02-15T00:11:25.845Z,18.6
2018-02-15T00:21:28.893Z,19.9
2018-02-15T00:31:30.211Z,20.0
2018-02-15T00:41:27.270Z,20.1
2018-02-15T00:51:25.666Z,21.1
2018-02-15T01:01:26.260Z,18.7
2018-02-15T01:11:25.849Z,18.8
2018-02-15T01:21:27.083Z,18.9
2018-02-15T01:31:26.542Z,17.0
2018-02-15T01:41:29.214Z,18.9
2018-02-15T01:51:26.290Z,20.7
2018-02-15T02:01:26.035Z,21.4
2018-02-15T02:11:27.318Z,22.9
2018-02-15T02:21:25.822Z,20.7
2018-02-15T02:31:27.797Z,20.5
2018-02-15T02:41:29.028Z,20.9
2018-02-15T02:51:26.831Z,20.5
2018-02-15T03:01:27.598Z,22.5
2018-02-15T03:11:26.045Z,21.8
2018-02-15T03:21:27.143Z,21.9
2018-02-15T03:31:28.809Z,20.9
2018-02-15T03:41:27.300Z,21.6
2018-02-15T03:51:26.379Z,22.1
2018-02-15T04:01:25.759Z,23.8
2018-02-15T04:11:28.454Z,22.7
2018-02-15T04:21:26.399Z,23.4
2018-02-15T04:31:27.536Z,23.0
2018-02-15T04:41:27.938Z,23.1
2018-02-15T04:51:26.651Z,23.8
2018-02-15T05:01:27.226Z,23.2
2018-02-15T05:11:29.035Z,21.9
2018-02-15T05:21:25.652Z,20.4
2018-02-15T05:31:28.194Z,24.3
2018-02-15T05:41:27.872Z,22.3
2018-02-15T05:51:28.268Z,21.5
2018-02-15T06:01:26.017Z,21.0
2018-02-15T06:11:28.330Z,22.5
2018-02-15T06:21:27.953Z,21.5
2018-02-15T06:31:26.717Z,22.2
2018-02-15T06:41:28.799Z,24.5
2018-02-15T06:51:26.714Z,24.2
2018-02-15T07:01:26.216Z,24.1
2018-02-15T07:11:25.707Z,21.5
2018-02-15T07:21:28.116Z,22.9
2018-02-15T07:31:26.801Z,23.0
2018-02-15T07:41:26.633Z,22.2
2018-02-15T07:51:26.477Z,21.0
2018-02-15T08:01:25.849Z,20.5
2018-02-15T08:11:26.264Z,19.2
2018-02-15T08:21:27.415Z,19.3
2018-02-15T08:31:27.497Z,17.8
2018-02-15T08:41:25.855Z,17.6
2018-02-15T08:51:28.039Z,18.0
2018-02-15T09:01:27.321Z,19.7
2018-02-15T09:11:25.963Z,18.1
2018-02-15T09:21:26.165Z,18.1
2018-02-15T09:31:27.071Z,18.2
2018-02-15T09:41:26.396Z,21.5
2018-02-15T09:51:27.577Z,22.1
2018-02-15T10:01:26.096Z,19.2
2018-02-15T10:11:26.507Z,18.1
2018-02-15T10:21:26.766Z,19.0
2018-02-15T10:31:26.217Z,19.6
2018-02-15T10:41:25.719Z,20.4
2018-02-15T10:51:26.171Z,20.9
2018-02-15T11:01:26.148Z,20.3
2018-02-15T11:11:25.717Z,19.1
2018-02-15T11:21:28.672Z,19.0
2018-02-15T11:31:28.149Z,21.0
2018-02-15T11:41:26.416Z,21.3
2018-02-15T11:51:26.050Z,22.4
2018-02-15T12:01:26.556Z,21.5
2018-02-15T12:11:26.292Z,22.5
2018-02-15T12:21:27.767Z,23.1
2018-02-15T12:31:30.990Z,25.0
2018-02-15T12:41:28.698Z,23.3
2018-02-15T12:51:27.564Z,23.2
2018-02-15T13:01:26.791Z,25.6
2018-02-15T13:11:28.114Z,24.9
2018-02-15T13:21:26.426Z,20.7
2018-02-15T13:31:28.919Z,24.7
2018-02-15T13:41:27.437Z,24.1
2018-02-15T13:51:27.584Z,25.2
2018-02-15T14:01:26.378Z,23.6
2018-02-15T14:11:26.014Z,26.0
2018-02-15T14:21:26.833Z,24.8
2018-02-15T14:31:26.353Z,25.3
2018-02-15T14:41:28.785Z,26.0
2018-02-15T14:51:26.164Z,25.4
2018-02-15T15:01:28.004Z,26.0
2018-02-15T15:11:27.042Z,26.6
2018-02-15T15:21:25.577Z,25.9
2018-02-15T15:31:25.930Z,26.9
2018-02-15T15:41:26.402Z,25.2
2018-02-15T15:51:27.048Z,27.0
2018-02-15T16:01:26.476Z,25.9
2018-02-15T16:11:25.972Z,28.9
2018-02-15T16:21:26.272Z,28.3
2018-02-15T16:31:26.245Z,27.5
2018-02-15T16:41:27.629Z,28.6
2018-02-15T16:51:27.809Z,31.2
2018-02-15T17:01:27.938Z,30.8
2018-02-15T17:11:27.883Z,35.0
2018-02-15T17:21:27.468Z,37.1
2018-02-15T17:31:27.111Z,38.1
2018-02-15T17:41:28.853Z,38.6
2018-02-15T17:51:26.252Z,38.6
2018-02-15T18:01:26.623Z,40.1
2018-02-15T18:11:26.087Z,39.8
2018-02-15T18:21:29.580Z,42.0
2018-02-15T18:31:26.122Z,46.7
2018-02-15T18:41:28.161Z,43.3
2018-02-15T18:51:25.572Z,41.6
2018-02-15T19:01:28.726Z,41.3
2018-02-15T19:11:27.965Z,40.1
2018-02-15T19:21:25.922Z,42.3
2018-02-15T19:31:28.149Z,48.1
2018-02-15T19:41:25.996Z,49.0
2018-02-15T19:51:26.645Z,48.3
2018-02-15T20:01:26.840Z,52.5
2018-02-15T20:11:26.678Z,56.2
2018-02-15T20:21:26.750Z,54.7
2018-02-15T20:31:26.736Z,54.9
2018-02-15T20:41:37.623Z,54.8
2018-02-15T20:51:26.441Z,53.9
2018-02-15T21:01:29.169Z,55.9
2018-02-15T21:11:26.501Z,56.7
2018-02-15T21:21:27.226Z,55.7
2018-02-15T21:31:28.073Z,53.9
2018-02-15T21:41:26.661Z,56.5
2018-02-15T21:51:27.910Z,57.4
2018-02-15T22:01:26.299Z,56.7
2018-02-15T22:11:26.058Z,51.7
2018-02-15T22:21:25.716Z,53.1
2018-02-15T22:31:27.586Z,53.1
2018-02-15T22:41:28.012Z,50.6
2018-02-15T22:51:26.503Z,49.9
2018-02-15T23:01:26.119Z,51.4
2018-02-15T23:11:27.514Z,51.9
2018-02-15T23:21:27.688Z,56.1
2018-02-15T23:31:26.134Z,53.6
2018-02-15T23:41:26.545Z,53.3
2018-02-15T23:51:26.695Z,51.8
